Butte Des Morts, Wisconsin
Current Conditions -  °F | °C
As of 5:53 PM on Saturday 22 Nov 2014 (Local Time) from KOSH Reporting Station
Haze Haze  
Wind Chill: 36°   Ceiling: 400
Heat Index: 40°   Visibility: 3mi
Dew Point: 39°   Wind: 6mph
Humidity: 97%   Direction: 190°S
Pressure: 29.78"   Gusts: NA
Location:  44.1°N, 88.65°W
Report Text: KOSH 222353Z 19005KT 3SM BR OVC004 04/04 A2978 RMK AO2 SLP094 T00440039 10050 20028 53004
Loading
Personal Weather Stations






























Interactive Weather Map New forecast layout! Learn more

10-Day Weather Forecast

Advertisements
Track Severe Weather on mobile